N80EM EGGW-LIPZ
Flight info
| Callsign | N80EM |
|---|---|
| Flight time | N/A |
| Altitude | 45000 |
| Route | MATCH DCT DAGGA DCT ITVIP DCT KONAN DCT REMBA DCT KRH DCT TIRUL DCT NATAG DCT ADOSA/N0459F190 L612 ALBET |
| Aircraft | C750/M-SBDE3FGHRWXY/S |
Departure
| Time | 2026-04-30 14:51 |
|---|---|
| Airport | London Luton Airport (EGGW) |
Arrival
| Time | N/A |
|---|---|
| Airport | Venice Marco Polo Airport (LIPZ) |
| Time | Latitude | Longitude | Altitude | Speed | Heading |
|---|---|---|---|---|---|
| 2026-04-30 14:35 | 51.87714 | -0.37865 | 520 ft | 0 kts | 182° |
| 2026-04-30 14:48 | 51.87713 | -0.37862 | 520 ft | 1 kts | 142° |
| 2026-04-30 14:48 | 51.87746 | -0.37806 | 520 ft | 16 kts | 44° |
| 2026-04-30 14:49 | 51.87754 | -0.37743 | 520 ft | 17 kts | 104° |
| 2026-04-30 14:49 | 51.87682 | -0.37522 | 517 ft | 21 kts | 127° |
| 2026-04-30 14:49 | 51.87539 | -0.37472 | 518 ft | 23 kts | 201° |
| 2026-04-30 14:49 | 51.87425 | -0.37639 | 518 ft | 22 kts | 225° |
| 2026-04-30 14:50 | 51.87326 | -0.37632 | 517 ft | 0 kts | 71° |
| 2026-04-30 14:50 | 51.87331 | -0.37605 | 517 ft | 0 kts | 75° |
| 2026-04-30 14:51 | 51.87351 | -0.37488 | 518 ft | 49 kts | 73° |
| 2026-04-30 14:51 | 51.87536 | -0.36415 | 625 ft | 125 kts | 79° |
| 2026-04-30 14:51 | 51.87988 | -0.33641 | 2037 ft | 133 kts | 82° |
| 2026-04-30 14:52 | 51.88230 | -0.32199 | 2831 ft | 133 kts | 80° |
| 2026-04-30 14:52 | 51.88828 | -0.28896 | 3812 ft | 179 kts | 82° |
| 2026-04-30 14:52 | 51.89186 | -0.26800 | 4152 ft | 208 kts | 81° |
| 2026-04-30 14:53 | 51.89446 | -0.21996 | 5890 ft | 216 kts | 110° |
| 2026-04-30 14:53 | 51.88735 | -0.19863 | 6797 ft | 217 kts | 130° |
| 2026-04-30 14:54 | 51.86875 | -0.15931 | 8839 ft | 222 kts | 128° |
| 2026-04-30 14:54 | 51.84984 | -0.11883 | 10733 ft | 230 kts | 129° |
| 2026-04-30 14:55 | 51.83012 | -0.07687 | 12486 ft | 238 kts | 128° |
| 2026-04-30 14:55 | 51.81999 | -0.05532 | 13313 ft | 243 kts | 128° |
| 2026-04-30 14:55 | 51.79921 | -0.01118 | 14894 ft | 252 kts | 128° |
| 2026-04-30 14:56 | 51.77775 | 0.03433 | 16436 ft | 257 kts | 129° |
| 2026-04-30 14:56 | 51.75572 | 0.08096 | 18008 ft | 267 kts | 129° |
| 2026-04-30 14:57 | 51.74442 | 0.10485 | 18838 ft | 269 kts | 129° |
| 2026-04-30 14:57 | 51.72144 | 0.15338 | 20399 ft | 274 kts | 129° |
| 2026-04-30 14:58 | 51.69816 | 0.20243 | 22072 ft | 277 kts | 129° |
| 2026-04-30 14:58 | 51.68637 | 0.22722 | 22905 ft | 280 kts | 128° |
| 2026-04-30 14:58 | 51.66247 | 0.27743 | 24309 ft | 289 kts | 128° |
| 2026-04-30 14:59 | 51.63599 | 0.33290 | 24379 ft | 339 kts | 128° |
| 2026-04-30 15:00 | 51.58890 | 0.43139 | 24570 ft | 396 kts | 128° |
| 2026-04-30 15:00 | 51.55511 | 0.50182 | 25684 ft | 401 kts | 128° |
| 2026-04-30 15:01 | 51.52067 | 0.57337 | 26712 ft | 408 kts | 128° |
| 2026-04-30 15:01 | 51.50892 | 0.59772 | 27058 ft | 410 kts | 128° |
| 2026-04-30 15:01 | 51.46796 | 0.68251 | 28298 ft | 417 kts | 129° |
| 2026-04-30 15:02 | 51.45010 | 0.71938 | 28827 ft | 420 kts | 129° |
| 2026-04-30 15:02 | 51.43209 | 0.75652 | 29345 ft | 424 kts | 129° |
| 2026-04-30 15:03 | 51.37716 | 0.86942 | 30777 ft | 433 kts | 129° |
| 2026-04-30 15:03 | 51.33999 | 0.94558 | 31851 ft | 433 kts | 129° |
| 2026-04-30 15:04 | 51.30361 | 1.02218 | 32967 ft | 433 kts | 123° |